createdAt,value
2019-05-20T00:00:22.268Z,34.30
2019-05-20T00:01:24.315Z,33.00
2019-05-20T00:02:27.563Z,31.90
2019-05-20T00:03:22.040Z,33.50
2019-05-20T00:04:21.932Z,33.90
2019-05-20T00:05:21.956Z,33.90
2019-05-20T00:06:21.770Z,33.40
2019-05-20T00:07:21.791Z,35.40
2019-05-20T00:08:21.605Z,34.50
2019-05-20T00:09:21.529Z,34.40
2019-05-20T00:10:21.474Z,34.80
2019-05-20T00:11:21.362Z,35.50
2019-05-20T00:12:21.293Z,34.00
2019-05-20T00:13:21.207Z,34.40
2019-05-20T00:14:21.113Z,33.80
2019-05-20T00:15:21.099Z,34.90
2019-05-20T00:16:20.961Z,34.00
2019-05-20T00:17:20.942Z,33.80
2019-05-20T00:18:20.788Z,35.10
2019-05-20T00:19:20.694Z,35.70
2019-05-20T00:20:21.648Z,35.30
2019-05-20T00:21:20.539Z,35.40
2019-05-20T00:22:20.467Z,35.50
2019-05-20T00:23:20.434Z,35.80
2019-05-20T00:24:20.292Z,36.30
2019-05-20T00:25:27.207Z,37.70
2019-05-20T00:26:20.127Z,36.50
2019-05-20T00:27:20.087Z,37.10
2019-05-20T00:28:19.957Z,35.60
2019-05-20T00:29:19.875Z,35.80
2019-05-20T00:30:19.865Z,35.20
2019-05-20T00:31:19.708Z,34.10
2019-05-20T00:32:19.640Z,36.10
2019-05-20T00:33:19.646Z,34.70
2019-05-20T00:34:34.136Z,34.80
2019-05-20T00:35:19.387Z,33.80
2019-05-20T00:36:19.463Z,34.80
2019-05-20T00:37:19.221Z,34.50
2019-05-20T00:38:19.213Z,34.20
2019-05-20T00:39:19.046Z,35.50
2019-05-20T00:40:19.020Z,35.70
2019-05-20T00:41:18.886Z,35.40
2019-05-20T00:42:19.883Z,36.10
2019-05-20T00:43:18.723Z,36.60
2019-05-20T00:44:19.664Z,37.50
2019-05-20T00:45:18.556Z,35.40
2019-05-20T00:46:18.550Z,34.90
2019-05-20T00:47:18.399Z,35.10
2019-05-20T00:48:18.360Z,35.90
2019-05-20T00:49:18.230Z,35.20
2019-05-20T00:50:18.166Z,35.70
2019-05-20T00:51:18.057Z,36.70
2019-05-20T00:52:18.012Z,34.80
2019-05-20T00:53:17.902Z,34.00
2019-05-20T00:54:17.837Z,33.80
2019-05-20T00:55:17.798Z,33.20
2019-05-20T00:56:17.640Z,33.80
2019-05-20T00:57:18.557Z,34.60
2019-05-20T00:58:17.503Z,34.60
2019-05-20T00:59:17.430Z,33.80
2019-05-20T01:00:17.316Z,33.10
2019-05-20T01:01:17.319Z,32.20
2019-05-20T01:02:17.169Z,33.50
2019-05-20T01:03:17.071Z,33.40
2019-05-20T01:04:17.036Z,34.20
2019-05-20T01:05:16.898Z,34.30
2019-05-20T01:06:16.840Z,34.50
2019-05-20T01:07:16.753Z,35.30
2019-05-20T01:08:17.673Z,36.00
2019-05-20T01:09:16.576Z,36.10
2019-05-20T01:10:16.486Z,36.80
2019-05-20T01:11:16.469Z,37.30
2019-05-20T01:12:16.426Z,37.10
2019-05-20T01:13:16.236Z,37.00
2019-05-20T01:14:16.184Z,36.80
2019-05-20T01:15:16.078Z,37.20
2019-05-20T01:16:15.990Z,37.50
2019-05-20T01:17:16.027Z,36.80
2019-05-20T01:18:15.828Z,38.20
2019-05-20T01:19:15.746Z,38.40
2019-05-20T01:20:15.709Z,39.80
2019-05-20T01:21:15.605Z,39.40
2019-05-20T01:22:15.509Z,39.40
2019-05-20T01:23:15.417Z,40.10
2019-05-20T01:24:15.331Z,37.80
2019-05-20T01:25:15.251Z,37.50
2019-05-20T01:26:16.266Z,38.30
2019-05-20T01:27:15.101Z,37.20
2019-05-20T01:28:14.998Z,38.40
2019-05-20T01:29:14.952Z,38.80
2019-05-20T01:30:14.873Z,40.60
2019-05-20T01:31:14.755Z,42.60
2019-05-20T01:32:14.706Z,44.30
2019-05-20T01:33:14.689Z,46.10
2019-05-20T01:34:14.500Z,48.30
2019-05-20T01:35:14.482Z,46.80
2019-05-20T01:36:14.371Z,47.70
2019-05-20T01:37:14.269Z,49.50
2019-05-20T01:38:14.211Z,58.60
2019-05-20T01:39:14.088Z,68.10
2019-05-20T01:40:14.010Z,79.10
2019-05-20T01:41:14.013Z,80.80
2019-05-20T01:42:13.855Z,86.20
2019-05-20T01:43:13.759Z,81.40
2019-05-20T01:44:20.688Z,83.30
2019-05-20T01:45:13.607Z,87.70
2019-05-20T01:46:13.534Z,86.70
2019-05-20T01:47:13.443Z,87.30
2019-05-20T01:48:13.443Z,86.80
2019-05-20T01:49:13.264Z,89.60
2019-05-20T01:50:15.202Z,89.50
2019-05-20T01:51:13.105Z,90.40
2019-05-20T01:52:13.107Z,92.40
2019-05-20T01:53:12.961Z,92.50
2019-05-20T01:54:12.872Z,92.90
2019-05-20T01:55:12.778Z,94.70
2019-05-20T01:56:13.705Z,92.70
2019-05-20T01:57:12.623Z,94.30
2019-05-20T01:58:12.595Z,97.80
2019-05-20T01:59:12.447Z,94.60
2019-05-20T02:00:12.369Z,96.00
2019-05-20T02:01:12.306Z,100.10
2019-05-20T02:02:12.279Z,99.60
2019-05-20T02:03:12.116Z,100.10
2019-05-20T02:04:12.122Z,99.00
2019-05-20T02:05:11.954Z,103.00
2019-05-20T02:06:11.932Z,109.00
2019-05-20T02:07:11.807Z,105.20
2019-05-20T02:08:12.817Z,104.70
2019-05-20T02:09:11.628Z,107.20
2019-05-20T02:10:11.653Z,109.30
2019-05-20T02:11:11.462Z,102.60
2019-05-20T02:12:11.463Z,109.50
2019-05-20T02:13:11.312Z,108.40
2019-05-20T02:14:11.271Z,106.50
2019-05-20T02:15:11.141Z,107.80
2019-05-20T02:16:11.061Z,111.40
2019-05-20T02:17:10.993Z,105.90
2019-05-20T02:18:10.922Z,111.90
2019-05-20T02:19:10.805Z,107.70
2019-05-20T02:20:10.727Z,103.50
2019-05-20T02:21:10.642Z,105.40
2019-05-20T02:22:10.565Z,102.00
2019-05-20T02:23:10.496Z,103.90
2019-05-20T02:24:10.418Z,99.40
2019-05-20T02:25:10.314Z,98.40
2019-05-20T02:26:18.213Z,95.10
2019-05-20T02:27:10.162Z,98.30
2019-05-20T02:28:10.179Z,101.10
2019-05-20T02:29:09.986Z,98.60
2019-05-20T02:30:09.910Z,95.00
2019-05-20T02:31:09.852Z,93.50
2019-05-20T02:32:09.747Z,94.30
2019-05-20T02:33:09.677Z,91.30
2019-05-20T02:34:09.669Z,90.90
2019-05-20T02:35:09.496Z,91.40
2019-05-20T02:36:09.481Z,88.40
2019-05-20T02:37:09.337Z,85.60
2019-05-20T02:38:13.726Z,84.00
2019-05-20T02:39:09.182Z,80.50
2019-05-20T02:40:09.093Z,80.00
2019-05-20T02:41:09.102Z,77.90
2019-05-20T02:42:08.925Z,77.20
2019-05-20T02:43:08.862Z,77.10
2019-05-20T02:44:08.818Z,77.90
2019-05-20T02:45:08.690Z,77.70
2019-05-20T02:46:08.596Z,78.50
2019-05-20T02:47:08.529Z,72.30
2019-05-20T02:48:08.457Z,73.70
2019-05-20T02:49:08.440Z,73.80
2019-05-20T02:50:08.277Z,73.40
2019-05-20T02:51:08.208Z,73.60
2019-05-20T02:52:08.154Z,71.00
2019-05-20T02:53:08.043Z,67.80
2019-05-20T02:54:07.950Z,73.10
2019-05-20T02:55:07.977Z,69.30
2019-05-20T02:56:07.788Z,67.60
2019-05-20T02:57:07.703Z,72.70
2019-05-20T02:58:07.719Z,69.50
2019-05-20T02:59:07.539Z,75.50
2019-05-20T03:00:07.454Z,78.00
2019-05-20T03:01:07.392Z,68.40
2019-05-20T03:02:07.293Z,70.60
2019-05-20T03:03:07.221Z,68.30
2019-05-20T03:04:12.033Z,65.40
2019-05-20T03:05:07.048Z,63.90
2019-05-20T03:06:06.974Z,61.30
2019-05-20T03:07:06.925Z,64.90
2019-05-20T03:08:06.836Z,63.50
2019-05-20T03:09:06.729Z,63.50
2019-05-20T03:10:06.754Z,59.90
2019-05-20T03:11:06.553Z,60.60
2019-05-20T03:12:06.482Z,66.70
2019-05-20T03:13:06.488Z,62.20
2019-05-20T03:14:06.316Z,60.40
2019-05-20T03:15:06.234Z,62.30
2019-05-20T03:16:06.173Z,63.40
2019-05-20T03:17:06.074Z,60.90
2019-05-20T03:18:06.129Z,61.50
2019-05-20T03:19:05.909Z,60.80
2019-05-20T03:20:05.920Z,57.80
2019-05-20T03:21:05.742Z,62.30
2019-05-20T03:22:05.704Z,58.30
2019-05-20T03:23:05.593Z,57.00
2019-05-20T03:24:05.612Z,55.90
2019-05-20T03:25:05.431Z,54.50
2019-05-20T03:26:05.340Z,54.10
2019-05-20T03:27:12.206Z,56.20
2019-05-20T03:28:05.185Z,53.00
2019-05-20T03:29:05.095Z,55.90
2019-05-20T03:30:05.059Z,71.40
2019-05-20T03:31:04.942Z,75.50
2019-05-20T03:32:04.854Z,65.20
2019-05-20T03:33:04.894Z,61.50
2019-05-20T03:34:04.716Z,65.50
2019-05-20T03:35:04.628Z,62.90
2019-05-20T03:36:04.584Z,65.80
2019-05-20T03:37:04.444Z,64.20
2019-05-20T03:38:04.429Z,61.90
2019-05-20T03:39:04.276Z,62.10
2019-05-20T03:40:04.192Z,62.40
2019-05-20T03:41:04.247Z,58.80
2019-05-20T03:42:04.033Z,58.60
2019-05-20T03:43:03.970Z,61.50
2019-05-20T03:44:03.918Z,56.60
2019-05-20T03:45:03.801Z,58.80
2019-05-20T03:46:03.708Z,54.60
2019-05-20T03:47:03.734Z,56.20
2019-05-20T03:48:03.556Z,53.00
2019-05-20T03:49:03.466Z,50.90
2019-05-20T03:50:03.446Z,49.50
2019-05-20T03:51:03.305Z,50.90
2019-05-20T03:52:03.256Z,49.30
2019-05-20T03:53:03.154Z,47.60
2019-05-20T03:54:03.157Z,50.80
2019-05-20T03:55:02.978Z,46.90
2019-05-20T03:56:02.888Z,46.80
2019-05-20T03:57:02.873Z,46.70
2019-05-20T03:58:02.753Z,47.30
2019-05-20T03:59:02.644Z,45.30
2019-05-20T04:00:02.585Z,43.00
2019-05-20T04:01:02.477Z,45.60
2019-05-20T04:02:02.399Z,45.00
2019-05-20T04:03:02.399Z,43.60
2019-05-20T04:04:02.253Z,44.70
2019-05-20T04:05:03.347Z,42.80
2019-05-20T04:06:02.127Z,41.70
2019-05-20T04:07:02.005Z,40.80
2019-05-20T04:08:02.027Z,41.80
2019-05-20T04:09:01.848Z,43.40
2019-05-20T04:10:09.717Z,40.60
2019-05-20T04:11:01.670Z,42.00
2019-05-20T04:12:01.642Z,43.60
2019-05-20T04:13:01.504Z,42.40
2019-05-20T04:14:01.484Z,42.10
2019-05-20T04:15:01.356Z,44.30
2019-05-20T04:16:01.356Z,43.80
2019-05-20T04:17:03.215Z,43.40
2019-05-20T04:18:01.116Z,43.20
2019-05-20T04:19:01.027Z,43.50
2019-05-20T04:20:00.983Z,43.50
2019-05-20T04:21:00.852Z,42.00
2019-05-20T04:22:00.775Z,43.10
2019-05-20T04:23:00.808Z,43.40
2019-05-20T04:24:01.736Z,43.40
2019-05-20T04:25:00.522Z,41.40
2019-05-20T04:26:00.523Z,42.70
2019-05-20T04:27:00.363Z,42.00
2019-05-20T04:28:00.283Z,43.60
2019-05-20T04:29:00.259Z,43.10
2019-05-20T04:30:00.116Z,42.10
2019-05-20T04:31:00.037Z,41.20
2019-05-20T04:32:00.043Z,43.30
2019-05-20T04:32:59.869Z,42.10
2019-05-20T04:33:59.805Z,42.60
2019-05-20T04:34:59.756Z,43.10
2019-05-20T04:35:59.625Z,43.50
2019-05-20T04:36:59.574Z,41.90
2019-05-20T04:37:59.469Z,40.50
2019-05-20T04:38:59.516Z,42.00
2019-05-20T04:39:59.298Z,45.00
2019-05-20T04:41:06.248Z,41.40
2019-05-20T04:41:59.139Z,40.30
2019-05-20T04:42:59.090Z,41.50
2019-05-20T04:43:58.993Z,40.60
2019-05-20T04:44:59.006Z,40.20
2019-05-20T04:45:58.811Z,39.90
2019-05-20T04:46:59.732Z,40.70
2019-05-20T04:47:58.651Z,41.50
2019-05-20T04:48:58.654Z,41.40
2019-05-20T04:49:58.486Z,42.40
2019-05-20T04:50:58.406Z,41.70
2019-05-20T04:51:58.438Z,42.40
2019-05-20T04:52:58.237Z,41.00
2019-05-20T04:53:58.170Z,41.90
2019-05-20T04:54:58.162Z,41.00
2019-05-20T04:55:58.008Z,38.70
2019-05-20T04:56:57.914Z,39.40
2019-05-20T04:57:57.865Z,39.70
2019-05-20T04:58:57.763Z,39.00
2019-05-20T04:59:58.694Z,37.80
2019-05-20T05:00:57.628Z,37.80
2019-05-20T05:01:57.510Z,37.60
2019-05-20T05:02:57.490Z,38.50
2019-05-20T05:03:57.365Z,36.90
2019-05-20T05:04:57.271Z,37.70
2019-05-20T05:05:57.217Z,38.90
2019-05-20T05:06:57.104Z,38.00
2019-05-20T05:07:57.111Z,38.20
2019-05-20T05:08:56.951Z,39.10
2019-05-20T05:09:56.865Z,39.60
2019-05-20T05:10:56.773Z,38.80
2019-05-20T05:11:56.707Z,38.30
2019-05-20T05:12:56.616Z,38.30
2019-05-20T05:13:56.577Z,38.50
2019-05-20T05:14:56.457Z,39.60
2019-05-20T05:15:56.371Z,38.00
2019-05-20T05:16:56.364Z,40.20
2019-05-20T05:17:56.205Z,37.60
2019-05-20T05:18:56.142Z,37.40
2019-05-20T05:19:56.078Z,39.50
2019-05-20T05:20:55.966Z,38.80
2019-05-20T05:21:55.885Z,38.80
2019-05-20T05:22:55.894Z,39.20
2019-05-20T05:23:59.197Z,38.50
2019-05-20T05:24:55.637Z,40.00
2019-05-20T05:25:55.606Z,39.40
2019-05-20T05:26:55.498Z,39.40
2019-05-20T05:27:55.395Z,39.50
2019-05-20T05:28:55.352Z,39.60
2019-05-20T05:29:55.234Z,40.60
2019-05-20T05:30:55.151Z,40.20
2019-05-20T05:31:55.142Z,41.30
2019-05-20T05:32:55.005Z,42.50
2019-05-20T05:33:54.984Z,90.10
2019-05-20T05:34:54.838Z,50.70
2019-05-20T05:35:55.780Z,46.00
2019-05-20T05:36:54.685Z,46.90
2019-05-20T05:37:54.839Z,48.70
2019-05-20T05:38:54.609Z,43.50
2019-05-20T05:39:54.421Z,44.40
2019-05-20T05:40:54.337Z,41.00
2019-05-20T05:41:54.284Z,52.30
2019-05-20T05:42:54.181Z,40.30
2019-05-20T05:43:54.119Z,45.40
2019-05-20T05:44:54.018Z,43.40
2019-05-20T05:45:53.935Z,41.40
2019-05-20T05:46:53.887Z,46.00
2019-05-20T05:48:00.775Z,55.20
2019-05-20T05:48:53.701Z,52.80
2019-05-20T05:49:53.643Z,49.60
2019-05-20T05:50:53.631Z,43.30
2019-05-20T05:51:53.447Z,45.80
2019-05-20T05:52:53.366Z,45.20
2019-05-20T05:53:54.398Z,37.30
2019-05-20T05:54:53.219Z,40.10
2019-05-20T05:55:53.126Z,47.50
2019-05-20T05:56:53.154Z,43.60
2019-05-20T05:57:52.962Z,62.30
2019-05-20T05:58:52.942Z,51.40
2019-05-20T05:59:52.801Z,38.60
2019-05-20T06:00:52.783Z,38.20
2019-05-20T06:01:52.677Z,39.00
2019-05-20T06:02:52.580Z,38.30
2019-05-20T06:03:52.495Z,36.70
2019-05-20T06:04:52.401Z,37.00
2019-05-20T06:06:10.334Z,36.70
2019-05-20T06:06:52.237Z,36.80
2019-05-20T06:07:52.207Z,40.70
2019-05-20T06:08:52.091Z,38.80
2019-05-20T06:09:52.060Z,72.80
2019-05-20T06:10:51.917Z,85.70
2019-05-20T06:11:51.830Z,39.40
2019-05-20T06:12:51.844Z,39.60
2019-05-20T06:13:51.664Z,39.00
2019-05-20T06:14:51.593Z,37.40
2019-05-20T06:15:54.524Z,38.10
2019-05-20T06:16:51.420Z,38.60
2019-05-20T06:17:51.348Z,37.90
2019-05-20T06:18:52.289Z,44.00
2019-05-20T06:19:51.201Z,47.10
2019-05-20T06:20:51.095Z,38.00
2019-05-20T06:21:51.081Z,45.40
2019-05-20T06:22:50.932Z,45.70
2019-05-20T06:23:50.907Z,45.40
2019-05-20T06:24:51.321Z,45.00
2019-05-20T06:25:50.699Z,41.70
2019-05-20T06:26:50.618Z,42.20
2019-05-20T06:27:50.717Z,41.80
2019-05-20T06:28:50.453Z,42.60
2019-05-20T06:29:50.552Z,42.00
2019-05-20T06:30:50.289Z,40.70
2019-05-20T06:31:50.211Z,39.80
2019-05-20T06:32:50.334Z,38.00
2019-05-20T06:33:50.053Z,37.70
2019-05-20T06:34:49.982Z,39.00
2019-05-20T06:35:49.953Z,40.60
2019-05-20T06:36:49.808Z,40.70
2019-05-20T06:37:49.756Z,38.10
2019-05-20T06:38:49.652Z,38.80
2019-05-20T06:39:51.294Z,38.10
2019-05-20T06:40:49.480Z,38.00
2019-05-20T06:41:49.576Z,37.50
2019-05-20T06:42:49.326Z,37.80
2019-05-20T06:43:49.382Z,38.50
2019-05-20T06:44:53.112Z,37.00
2019-05-20T06:45:49.193Z,38.20
2019-05-20T06:46:48.995Z,37.90
2019-05-20T06:47:49.001Z,38.70
2019-05-20T06:48:48.827Z,37.60
2019-05-20T06:49:48.766Z,38.00
2019-05-20T06:50:48.665Z,40.50
2019-05-20T06:51:48.620Z,39.30
2019-05-20T06:52:48.529Z,39.50
2019-05-20T06:53:48.640Z,38.40
2019-05-20T06:54:48.357Z,38.50
2019-05-20T06:55:48.266Z,38.40
2019-05-20T06:56:48.515Z,39.80
2019-05-20T06:57:48.135Z,39.60
2019-05-20T06:58:48.023Z,40.40
2019-05-20T06:59:47.958Z,42.00
2019-05-20T07:00:47.862Z,38.30
2019-05-20T07:01:47.780Z,38.60
2019-05-20T07:02:47.696Z,39.50
2019-05-20T07:03:47.619Z,37.90
2019-05-20T07:04:47.545Z,37.80
2019-05-20T07:05:47.465Z,37.40
2019-05-20T07:06:47.784Z,36.60
2019-05-20T07:07:47.289Z,37.10
2019-05-20T07:08:47.219Z,36.20
2019-05-20T07:09:47.141Z,36.50
2019-05-20T07:10:47.052Z,35.70
2019-05-20T07:11:52.833Z,37.70
2019-05-20T07:12:46.889Z,35.90
2019-05-20T07:13:46.808Z,37.20
2019-05-20T07:14:46.753Z,36.00
2019-05-20T07:15:46.652Z,36.00
2019-05-20T07:16:46.572Z,35.20
2019-05-20T07:17:46.488Z,35.70
2019-05-20T07:18:46.399Z,35.40
2019-05-20T07:19:46.342Z,34.30
2019-05-20T07:20:46.251Z,34.60
2019-05-20T07:21:46.158Z,33.90
2019-05-20T07:22:55.655Z,32.00
2019-05-20T07:23:46.005Z,32.40
2019-05-20T07:24:45.931Z,32.50
2019-05-20T07:25:45.882Z,37.30
2019-05-20T07:26:45.757Z,33.00
2019-05-20T07:27:45.687Z,31.00
2019-05-20T07:28:45.620Z,32.40
2019-05-20T07:29:45.539Z,32.70
2019-05-20T07:30:45.488Z,32.90
2019-05-20T07:31:45.363Z,30.90
2019-05-20T07:32:45.276Z,31.10
2019-05-20T07:33:45.195Z,32.60
2019-05-20T07:34:45.131Z,31.20
2019-05-20T07:35:45.055Z,29.50
2019-05-20T07:37:01.488Z,29.60
2019-05-20T07:37:44.869Z,29.90
2019-05-20T07:38:44.790Z,29.00
2019-05-20T07:39:44.732Z,27.90
2019-05-20T07:40:44.629Z,28.90
2019-05-20T07:41:44.555Z,29.20
2019-05-20T07:42:44.464Z,29.20
2019-05-20T07:43:44.392Z,29.70
2019-05-20T07:44:44.336Z,29.00
2019-05-20T07:45:44.236Z,28.30
2019-05-20T07:46:44.142Z,27.70
2019-05-20T07:47:44.069Z,27.80
2019-05-20T07:48:44.001Z,28.70
2019-05-20T07:49:43.927Z,30.00
2019-05-20T07:50:43.854Z,29.30
2019-05-20T07:51:43.778Z,27.80
2019-05-20T07:52:43.661Z,28.30
2019-05-20T07:53:43.609Z,28.00
2019-05-20T07:54:43.521Z,29.30
2019-05-20T07:55:43.437Z,28.50
2019-05-20T07:56:43.343Z,29.70
2019-05-20T07:57:43.266Z,29.50
2019-05-20T07:58:43.179Z,31.20
2019-05-20T07:59:43.125Z,29.00
2019-05-20T08:00:43.041Z,30.00
2019-05-20T08:01:42.947Z,29.40
2019-05-20T08:02:42.863Z,29.10
2019-05-20T08:03:42.785Z,27.40
2019-05-20T08:04:42.733Z,28.20
2019-05-20T08:05:42.644Z,27.80
2019-05-20T08:06:42.548Z,26.80
2019-05-20T08:07:52.100Z,29.00
2019-05-20T08:08:42.384Z,27.60
2019-05-20T08:09:45.970Z,28.20
2019-05-20T08:10:42.241Z,29.50
2019-05-20T08:11:42.137Z,27.70
2019-05-20T08:12:42.047Z,26.80
2019-05-20T08:13:42.001Z,26.70
2019-05-20T08:14:41.903Z,27.20
2019-05-20T08:15:41.826Z,27.40
2019-05-20T08:16:41.731Z,27.50
2019-05-20T08:17:41.654Z,27.80
2019-05-20T08:18:41.572Z,28.20
2019-05-20T08:19:41.490Z,26.50
2019-05-20T08:20:41.447Z,26.20
2019-05-20T08:21:41.336Z,29.00
2019-05-20T08:22:41.247Z,27.80
2019-05-20T08:23:41.166Z,27.20
2019-05-20T08:24:41.097Z,27.80
2019-05-20T08:25:41.024Z,27.50
2019-05-20T08:26:40.969Z,27.20
2019-05-20T08:27:40.859Z,29.10
2019-05-20T08:28:40.779Z,27.20
2019-05-20T08:29:40.698Z,27.20
2019-05-20T08:30:40.620Z,26.50
2019-05-20T08:31:40.539Z,27.30
2019-05-20T08:32:40.442Z,26.00
2019-05-20T08:33:40.381Z,27.10
2019-05-20T08:34:40.584Z,29.50
2019-05-20T08:35:40.258Z,28.70
2019-05-20T08:36:40.123Z,28.50
2019-05-20T08:37:45.310Z,25.40
2019-05-20T08:38:39.973Z,26.80
2019-05-20T08:39:39.894Z,26.80
2019-05-20T08:40:39.820Z,27.40
2019-05-20T08:41:39.753Z,26.10
2019-05-20T08:42:39.640Z,25.20
2019-05-20T08:43:39.587Z,26.20
2019-05-20T08:44:39.485Z,25.70
2019-05-20T08:45:39.460Z,25.90
2019-05-20T08:46:39.342Z,25.70
2019-05-20T08:47:39.244Z,26.00
2019-05-20T08:48:39.179Z,25.70
2019-05-20T08:49:39.367Z,26.00
2019-05-20T08:50:39.017Z,25.20
2019-05-20T08:51:39.042Z,25.80
2019-05-20T08:52:38.838Z,25.40
2019-05-20T08:53:38.784Z,24.60
2019-05-20T08:54:40.428Z,25.20
2019-05-20T08:55:38.631Z,25.00
2019-05-20T08:56:38.553Z,26.00
2019-05-20T08:57:38.447Z,25.80
2019-05-20T08:58:38.363Z,26.10
2019-05-20T08:59:38.288Z,27.30
2019-05-20T09:00:38.219Z,29.30
2019-05-20T09:01:38.134Z,27.70
2019-05-20T09:02:38.095Z,27.00
2019-05-20T09:03:37.967Z,27.60
2019-05-20T09:04:37.958Z,27.20
2019-05-20T09:05:37.900Z,26.80
2019-05-20T09:06:37.731Z,27.70
2019-05-20T09:07:37.653Z,27.00
2019-05-20T09:08:37.561Z,27.20
2019-05-20T09:09:37.523Z,27.20
2019-05-20T09:10:39.498Z,27.60
2019-05-20T09:11:37.335Z,26.90
2019-05-20T09:12:37.253Z,26.90
2019-05-20T09:13:37.170Z,28.00
2019-05-20T09:14:40.376Z,27.60
2019-05-20T09:15:37.023Z,28.30
2019-05-20T09:16:36.926Z,28.00
2019-05-20T09:17:38.995Z,28.80
2019-05-20T09:18:36.769Z,27.20
2019-05-20T09:19:36.692Z,27.50
2019-05-20T09:20:36.616Z,27.20
2019-05-20T09:21:36.533Z,27.90
2019-05-20T09:22:36.474Z,27.40
2019-05-20T09:23:36.361Z,26.80
2019-05-20T09:24:36.422Z,27.20
2019-05-20T09:25:36.216Z,26.50
2019-05-20T09:26:36.127Z,26.90
2019-05-20T09:27:36.052Z,26.30
2019-05-20T09:28:35.971Z,26.50
2019-05-20T09:29:38.066Z,26.10
2019-05-20T09:30:35.827Z,27.30
2019-05-20T09:31:35.737Z,27.90
2019-05-20T09:32:35.646Z,28.10
2019-05-20T09:33:35.590Z,26.80
2019-05-20T09:34:35.481Z,27.00
2019-05-20T09:35:35.413Z,25.70
2019-05-20T09:36:35.336Z,25.80
2019-05-20T09:37:35.243Z,26.50
2019-05-20T09:38:37.119Z,25.90
2019-05-20T09:39:35.081Z,27.50
2019-05-20T09:40:35.016Z,26.80
2019-05-20T09:41:34.948Z,27.80
2019-05-20T09:42:34.847Z,28.20
2019-05-20T09:43:34.787Z,28.10
2019-05-20T09:44:34.715Z,27.90
2019-05-20T09:45:34.617Z,27.30
2019-05-20T09:46:34.545Z,27.20
2019-05-20T09:47:34.476Z,27.80
2019-05-20T09:48:34.378Z,28.10
2019-05-20T09:49:34.321Z,27.90
2019-05-20T09:50:34.202Z,28.50
2019-05-20T09:51:34.142Z,28.60
2019-05-20T09:52:34.049Z,28.30
2019-05-20T09:53:33.966Z,26.90
2019-05-20T09:54:33.879Z,27.20
2019-05-20T09:55:33.838Z,27.50
2019-05-20T09:56:33.731Z,29.40
2019-05-20T09:57:33.636Z,27.90
2019-05-20T09:58:33.573Z,28.90
2019-05-20T09:59:42.723Z,29.70
2019-05-20T10:00:33.412Z,30.20
2019-05-20T10:01:33.336Z,29.90
2019-05-20T10:02:37.799Z,30.80
2019-05-20T10:03:33.161Z,30.40
2019-05-20T10:04:33.089Z,29.90
2019-05-20T10:05:32.997Z,29.70
2019-05-20T10:06:32.945Z,29.00
2019-05-20T10:07:32.839Z,30.50
2019-05-20T10:08:37.992Z,29.90
2019-05-20T10:09:32.678Z,29.20
2019-05-20T10:10:32.602Z,32.00
2019-05-20T10:11:32.537Z,32.70
2019-05-20T10:12:45.361Z,32.00
2019-05-20T10:13:32.365Z,32.60
2019-05-20T10:14:32.286Z,32.10
2019-05-20T10:15:32.199Z,32.00
2019-05-20T10:16:32.166Z,32.50
2019-05-20T10:17:32.051Z,33.20
2019-05-20T10:18:37.281Z,31.90
2019-05-20T10:19:31.882Z,32.00
2019-05-20T10:20:31.812Z,33.00
2019-05-20T10:21:31.732Z,33.50
2019-05-20T10:22:31.641Z,31.60
2019-05-20T10:23:31.569Z,32.90
2019-05-20T10:24:31.482Z,31.90
2019-05-20T10:25:31.400Z,34.00
2019-05-20T10:26:31.334Z,34.30
2019-05-20T10:27:31.249Z,34.40
2019-05-20T10:28:31.182Z,33.90
2019-05-20T10:29:31.078Z,34.20
2019-05-20T10:30:30.995Z,34.10
2019-05-20T10:31:30.975Z,36.20
2019-05-20T10:32:30.844Z,35.50
2019-05-20T10:33:30.758Z,35.80
2019-05-20T10:34:30.688Z,34.70
2019-05-20T10:35:30.596Z,35.50
2019-05-20T10:36:30.531Z,35.80
2019-05-20T10:37:30.457Z,38.70
2019-05-20T10:38:30.365Z,37.50
2019-05-20T10:39:30.290Z,36.70
2019-05-20T10:40:30.216Z,37.40
2019-05-20T10:41:30.141Z,37.30
2019-05-20T10:42:30.040Z,37.00
2019-05-20T10:43:29.963Z,36.20
2019-05-20T10:44:29.897Z,37.40
2019-05-20T10:45:29.870Z,37.90
2019-05-20T10:46:29.737Z,37.80
2019-05-20T10:47:29.646Z,37.60
2019-05-20T10:48:29.565Z,37.40
2019-05-20T10:49:29.485Z,36.80
2019-05-20T10:50:29.399Z,39.10
2019-05-20T10:51:29.347Z,38.20
2019-05-20T10:52:29.239Z,37.90
2019-05-20T10:53:29.229Z,38.50
2019-05-20T10:54:29.094Z,37.10
2019-05-20T10:55:29.000Z,36.30
2019-05-20T10:56:28.940Z,36.70
2019-05-20T10:57:28.851Z,37.60
2019-05-20T10:58:28.762Z,37.20
2019-05-20T10:59:28.683Z,38.40
2019-05-20T11:00:28.611Z,37.10
2019-05-20T11:01:28.534Z,36.50
2019-05-20T11:02:31.144Z,36.60
2019-05-20T11:03:28.375Z,38.40
2019-05-20T11:04:28.280Z,37.70
2019-05-20T11:05:28.202Z,36.10
2019-05-20T11:06:28.145Z,37.60
2019-05-20T11:07:28.040Z,36.80
2019-05-20T11:08:27.961Z,37.80
2019-05-20T11:09:28.294Z,38.10
2019-05-20T11:10:27.819Z,39.00
2019-05-20T11:11:27.756Z,38.20
2019-05-20T11:12:27.706Z,37.40
2019-05-20T11:13:27.569Z,36.90
2019-05-20T11:14:27.495Z,36.80
2019-05-20T11:15:27.452Z,37.20
2019-05-20T11:16:27.656Z,36.00
2019-05-20T11:17:27.254Z,36.20
2019-05-20T11:18:27.167Z,36.50
2019-05-20T11:19:27.158Z,34.70
2019-05-20T11:20:27.004Z,36.20
2019-05-20T11:21:26.930Z,37.60
2019-05-20T11:22:26.856Z,38.80
2019-05-20T11:23:26.771Z,39.80
2019-05-20T11:24:26.690Z,41.20
2019-05-20T11:25:26.617Z,42.70
2019-05-20T11:26:26.521Z,41.90
2019-05-20T11:27:26.474Z,41.60
2019-05-20T11:28:26.368Z,42.50
2019-05-20T11:29:26.295Z,41.80
2019-05-20T11:30:26.222Z,40.80
2019-05-20T11:31:26.133Z,43.70
2019-05-20T11:32:26.060Z,41.50
2019-05-20T11:33:25.964Z,42.70
2019-05-20T11:34:25.901Z,41.90
2019-05-20T11:35:25.803Z,40.60
2019-05-20T11:36:25.725Z,40.30
2019-05-20T11:37:25.674Z,41.70
2019-05-20T11:38:25.563Z,40.10
2019-05-20T11:39:33.278Z,39.90
2019-05-20T11:40:25.407Z,39.40
2019-05-20T11:41:51.179Z,39.30
2019-05-20T11:42:25.268Z,40.60
2019-05-20T11:43:25.169Z,38.60
2019-05-20T11:44:25.090Z,39.80
2019-05-20T11:45:25.010Z,39.00
2019-05-20T11:46:25.013Z,39.50
2019-05-20T11:47:24.861Z,39.40
2019-05-20T11:48:24.777Z,40.70
2019-05-20T11:49:28.836Z,42.00
2019-05-20T11:50:24.623Z,40.80
2019-05-20T11:51:24.523Z,41.20
2019-05-20T11:52:24.488Z,39.90
2019-05-20T11:53:24.364Z,39.70
2019-05-20T11:54:24.288Z,38.70
2019-05-20T11:55:24.216Z,38.90
2019-05-20T11:56:24.130Z,39.60
2019-05-20T11:57:24.070Z,39.10
2019-05-20T11:58:23.973Z,39.60
2019-05-20T11:59:23.885Z,39.10
2019-05-20T12:00:23.942Z,39.70
2019-05-20T12:01:23.722Z,38.30
2019-05-20T12:02:23.671Z,38.00
2019-05-20T12:03:23.576Z,39.00
2019-05-20T12:04:23.482Z,37.00
2019-05-20T12:05:23.432Z,37.30
2019-05-20T12:06:23.386Z,36.60
2019-05-20T12:07:23.263Z,37.60
2019-05-20T12:08:23.171Z,37.80
2019-05-20T12:09:23.088Z,37.60
2019-05-20T12:10:23.009Z,37.30
2019-05-20T12:11:22.934Z,39.40
2019-05-20T12:12:22.864Z,38.30
2019-05-20T12:13:22.762Z,39.10
2019-05-20T12:14:22.687Z,39.90
2019-05-20T12:15:22.614Z,38.40
2019-05-20T12:16:22.528Z,38.30
2019-05-20T12:17:22.461Z,37.00
2019-05-20T12:18:22.358Z,37.30
2019-05-20T12:19:22.298Z,39.70
2019-05-20T12:20:22.212Z,37.20
2019-05-20T12:21:22.135Z,38.10
2019-05-20T12:22:22.063Z,38.60
2019-05-20T12:23:21.976Z,38.30
2019-05-20T12:24:21.920Z,40.70
2019-05-20T12:25:21.825Z,39.20
2019-05-20T12:26:22.761Z,41.90
2019-05-20T12:27:21.664Z,42.50
2019-05-20T12:28:21.563Z,41.00
2019-05-20T12:29:21.501Z,40.50
2019-05-20T12:30:21.475Z,42.30
2019-05-20T12:31:21.328Z,43.50
2019-05-20T12:32:21.262Z,41.20
2019-05-20T12:33:21.191Z,41.90
2019-05-20T12:34:21.127Z,37.50
2019-05-20T12:35:21.012Z,39.40
2019-05-20T12:36:20.938Z,38.80
2019-05-20T12:37:20.856Z,39.70
2019-05-20T12:38:20.775Z,38.60
2019-05-20T12:39:20.708Z,39.50
2019-05-20T12:40:20.603Z,39.60
2019-05-20T12:41:20.528Z,38.80
2019-05-20T12:42:20.475Z,38.80
2019-05-20T12:43:20.365Z,38.30
2019-05-20T12:44:20.299Z,39.20
2019-05-20T12:45:20.213Z,36.40
2019-05-20T12:46:20.134Z,37.90
2019-05-20T12:47:20.065Z,38.70
2019-05-20T12:48:19.971Z,37.50
2019-05-20T12:49:19.970Z,38.60
2019-05-20T12:50:19.805Z,38.00